createdAt,value
2019-03-09T00:00:12.300Z,7.97
2019-03-09T00:01:12.297Z,7.98
2019-03-09T00:02:12.286Z,7.91
2019-03-09T00:03:12.302Z,7.97
2019-03-09T00:04:12.257Z,7.98
2019-03-09T00:05:12.246Z,8.00
2019-03-09T00:06:13.578Z,8.01
2019-03-09T00:07:12.231Z,7.95
2019-03-09T00:08:12.217Z,7.94
2019-03-09T00:09:12.222Z,7.94
2019-03-09T00:10:12.197Z,7.87
2019-03-09T00:11:12.183Z,7.83
2019-03-09T00:12:12.178Z,7.85
2019-03-09T00:13:12.161Z,7.85
2019-03-09T00:14:12.182Z,7.90
2019-03-09T00:15:12.138Z,7.91
2019-03-09T00:16:12.125Z,7.87
2019-03-09T00:17:12.129Z,7.80
2019-03-09T00:18:12.120Z,7.73
2019-03-09T00:19:12.126Z,7.93
2019-03-09T00:20:12.097Z,7.83
2019-03-09T00:21:12.074Z,7.87
2019-03-09T00:22:12.083Z,7.85
2019-03-09T00:23:12.071Z,7.79
2019-03-09T00:24:12.046Z,7.87
2019-03-09T00:25:12.090Z,7.77
2019-03-09T00:26:12.017Z,7.73
2019-03-09T00:27:12.019Z,7.73
2019-03-09T00:28:12.012Z,7.73
2019-03-09T00:29:11.986Z,7.73
2019-03-09T00:30:11.975Z,7.76
2019-03-09T00:31:11.964Z,7.80
2019-03-09T00:32:11.970Z,7.75
2019-03-09T00:33:11.975Z,7.77
2019-03-09T00:34:11.930Z,7.83
2019-03-09T00:35:11.931Z,7.73
2019-03-09T00:36:11.910Z,7.80
2019-03-09T00:37:11.897Z,7.73
2019-03-09T00:38:11.890Z,7.69
2019-03-09T00:39:11.896Z,7.75
2019-03-09T00:40:11.895Z,7.73
2019-03-09T00:41:11.857Z,7.75
2019-03-09T00:42:11.849Z,7.75
2019-03-09T00:43:11.833Z,7.63
2019-03-09T00:44:11.849Z,7.61
2019-03-09T00:45:11.816Z,7.75
2019-03-09T00:46:11.802Z,7.60
2019-03-09T00:47:11.791Z,7.58
2019-03-09T00:48:11.812Z,7.56
2019-03-09T00:49:11.790Z,7.61
2019-03-09T00:50:11.785Z,7.57
2019-03-09T00:51:11.747Z,7.60
2019-03-09T00:52:11.732Z,7.67
2019-03-09T00:53:11.734Z,7.61
2019-03-09T00:54:11.744Z,7.67
2019-03-09T00:55:11.735Z,7.63
2019-03-09T00:56:11.693Z,7.66
2019-03-09T00:57:11.686Z,7.75
2019-03-09T00:58:11.681Z,7.58
2019-03-09T00:59:11.661Z,7.60
2019-03-09T01:00:11.659Z,7.58
2019-03-09T01:01:11.658Z,7.57
2019-03-09T01:02:11.626Z,7.61
2019-03-09T01:03:11.624Z,7.67
2019-03-09T01:04:11.631Z,7.58
2019-03-09T01:05:11.590Z,7.69
2019-03-09T01:06:11.607Z,7.79
2019-03-09T01:07:11.570Z,7.75
2019-03-09T01:08:11.559Z,7.72
2019-03-09T01:09:11.569Z,7.73
2019-03-09T01:10:11.543Z,7.76
2019-03-09T01:11:11.534Z,7.75
2019-03-09T01:12:11.540Z,7.80
2019-03-09T01:13:11.547Z,7.83
2019-03-09T01:14:11.497Z,7.83
2019-03-09T01:15:11.491Z,7.80
2019-03-09T01:16:11.489Z,7.79
2019-03-09T01:17:11.473Z,7.85
2019-03-09T01:18:11.500Z,7.95
2019-03-09T01:19:11.456Z,7.94
2019-03-09T01:20:11.437Z,7.93
2019-03-09T01:21:11.422Z,7.94
2019-03-09T01:22:11.412Z,7.90
2019-03-09T01:23:11.397Z,7.97
2019-03-09T01:24:11.410Z,8.01
2019-03-09T01:25:11.377Z,7.98
2019-03-09T01:26:11.362Z,8.05
2019-03-09T01:27:11.358Z,8.08
2019-03-09T01:28:11.344Z,8.10
2019-03-09T01:29:11.363Z,8.01
2019-03-09T01:30:11.327Z,8.03
2019-03-09T01:31:11.309Z,8.01
2019-03-09T01:32:11.305Z,8.06
2019-03-09T01:33:11.290Z,8.01
2019-03-09T01:34:11.313Z,8.00
2019-03-09T01:35:11.289Z,8.01
2019-03-09T01:36:11.260Z,8.00
2019-03-09T01:37:11.243Z,8.01
2019-03-09T01:38:11.245Z,7.91
2019-03-09T01:39:11.224Z,8.00
2019-03-09T01:40:11.242Z,8.01
2019-03-09T01:41:11.201Z,8.03
2019-03-09T01:42:11.204Z,7.95
2019-03-09T01:43:11.184Z,7.95
2019-03-09T01:44:11.177Z,7.97
2019-03-09T01:45:11.186Z,8.03
2019-03-09T01:46:11.164Z,8.01
2019-03-09T01:47:11.139Z,8.06
2019-03-09T01:48:11.154Z,8.08
2019-03-09T01:49:11.119Z,7.95
2019-03-09T01:50:11.108Z,7.97
2019-03-09T01:51:11.110Z,8.09
2019-03-09T01:52:11.083Z,8.05
2019-03-09T01:53:11.075Z,7.98
2019-03-09T01:54:11.113Z,8.10
2019-03-09T01:55:11.050Z,8.10
2019-03-09T01:56:11.081Z,8.08
2019-03-09T01:57:11.030Z,8.05
2019-03-09T01:58:11.015Z,8.05
2019-03-09T01:59:11.011Z,8.08
2019-03-09T02:00:10.993Z,8.05
2019-03-09T02:01:11.040Z,8.03
2019-03-09T02:02:10.971Z,8.09
2019-03-09T02:03:10.987Z,8.06
2019-03-09T02:04:10.988Z,8.03
2019-03-09T02:05:10.943Z,8.00
2019-03-09T02:06:10.930Z,8.06
2019-03-09T02:07:10.941Z,8.06
2019-03-09T02:08:10.911Z,8.06
2019-03-09T02:09:10.901Z,8.06
2019-03-09T02:10:10.893Z,8.13
2019-03-09T02:11:10.877Z,8.09
2019-03-09T02:12:10.903Z,8.01
2019-03-09T02:13:10.866Z,8.08
2019-03-09T02:14:10.848Z,8.05
2019-03-09T02:15:10.832Z,8.10
2019-03-09T02:16:10.848Z,8.10
2019-03-09T02:17:10.856Z,8.03
2019-03-09T02:18:10.830Z,8.10
2019-03-09T02:19:10.793Z,8.08
2019-03-09T02:20:10.779Z,8.00
2019-03-09T02:21:10.764Z,8.06
2019-03-09T02:22:10.768Z,8.09
2019-03-09T02:23:10.815Z,8.00
2019-03-09T02:24:10.730Z,8.03
2019-03-09T02:25:10.722Z,8.00
2019-03-09T02:26:10.789Z,8.06
2019-03-09T02:27:10.697Z,8.06
2019-03-09T02:28:10.692Z,8.03
2019-03-09T02:29:10.717Z,8.09
2019-03-09T02:30:10.668Z,8.15
2019-03-09T02:31:10.662Z,8.10
2019-03-09T02:32:10.654Z,8.12
2019-03-09T02:33:10.634Z,8.12
2019-03-09T02:34:10.643Z,8.12
2019-03-09T02:35:10.643Z,8.13
2019-03-09T02:36:10.604Z,8.08
2019-03-09T02:37:10.635Z,8.09
2019-03-09T02:38:10.607Z,8.09
2019-03-09T02:39:10.613Z,8.10
2019-03-09T02:40:10.596Z,8.12
2019-03-09T02:41:10.554Z,8.12
2019-03-09T02:42:10.549Z,8.06
2019-03-09T02:43:10.525Z,8.01
2019-03-09T02:44:10.529Z,8.10
2019-03-09T02:45:10.526Z,8.00
2019-03-09T02:46:10.501Z,8.05
2019-03-09T02:47:10.484Z,8.06
2019-03-09T02:48:10.494Z,8.10
2019-03-09T02:49:10.458Z,7.97
2019-03-09T02:50:10.477Z,8.01
2019-03-09T02:51:10.445Z,8.01
2019-03-09T02:52:10.448Z,7.95
2019-03-09T02:53:10.434Z,8.01
2019-03-09T02:54:10.409Z,7.97
2019-03-09T02:55:10.486Z,7.94
2019-03-09T02:56:10.406Z,7.95
2019-03-09T02:57:10.381Z,7.94
2019-03-09T02:58:10.372Z,7.93
2019-03-09T02:59:10.372Z,8.00
2019-03-09T03:00:10.341Z,7.95
2019-03-09T03:01:10.351Z,7.98
2019-03-09T03:02:10.326Z,8.00
2019-03-09T03:03:10.309Z,7.87
2019-03-09T03:04:10.298Z,7.93
2019-03-09T03:05:10.297Z,7.88
2019-03-09T03:06:10.305Z,7.94
2019-03-09T03:07:10.303Z,7.93
2019-03-09T03:08:10.256Z,7.95
2019-03-09T03:09:10.251Z,7.98
2019-03-09T03:10:10.234Z,8.00
2019-03-09T03:11:10.229Z,8.00
2019-03-09T03:12:10.238Z,7.95
2019-03-09T03:13:10.205Z,7.95
2019-03-09T03:14:10.198Z,7.95
2019-03-09T03:15:10.190Z,7.98
2019-03-09T03:16:10.172Z,8.00
2019-03-09T03:17:10.201Z,8.09
2019-03-09T03:18:10.167Z,8.08
2019-03-09T03:19:10.147Z,7.98
2019-03-09T03:20:10.130Z,8.10
2019-03-09T03:21:10.112Z,8.01
2019-03-09T03:22:10.137Z,8.03
2019-03-09T03:23:10.107Z,8.06
2019-03-09T03:24:10.087Z,8.01
2019-03-09T03:25:10.087Z,8.12
2019-03-09T03:26:10.063Z,8.09
2019-03-09T03:27:10.093Z,8.03
2019-03-09T03:28:10.037Z,7.97
2019-03-09T03:29:10.027Z,8.03
2019-03-09T03:30:10.021Z,7.98
2019-03-09T03:31:10.096Z,8.05
2019-03-09T03:32:10.035Z,8.05
2019-03-09T03:33:10.004Z,8.10
2019-03-09T03:34:09.976Z,8.06
2019-03-09T03:35:10.003Z,7.98
2019-03-09T03:36:09.965Z,7.95
2019-03-09T03:37:09.971Z,7.94
2019-03-09T03:38:09.959Z,7.97
2019-03-09T03:39:09.927Z,7.97
2019-03-09T03:40:09.919Z,8.09
2019-03-09T03:41:09.901Z,8.05
2019-03-09T03:42:09.903Z,8.01
2019-03-09T03:43:09.909Z,8.09
2019-03-09T03:44:09.919Z,8.03
2019-03-09T03:45:09.867Z,7.94
2019-03-09T03:46:09.855Z,7.93
2019-03-09T03:47:09.833Z,7.88
2019-03-09T03:48:09.866Z,7.93
2019-03-09T03:49:09.838Z,7.91
2019-03-09T03:51:23.783Z,8.00
2019-03-09T03:52:19.070Z,7.80
2019-03-09T03:53:19.057Z,7.83
2019-03-09T03:54:19.071Z,7.83
2019-03-09T03:55:19.042Z,7.95
2019-03-09T03:56:19.029Z,7.91
2019-03-09T03:57:19.044Z,7.93
2019-03-09T03:58:19.004Z,7.91
2019-03-09T03:59:18.994Z,7.91
2019-03-09T04:00:19.001Z,7.91
2019-03-09T04:01:18.990Z,7.94
2019-03-09T04:02:19.000Z,7.93
2019-03-09T04:03:18.954Z,7.94
2019-03-09T04:04:18.945Z,8.06
2019-03-09T04:05:18.930Z,7.94
2019-03-09T04:06:18.935Z,8.05
2019-03-09T04:07:18.926Z,8.08
2019-03-09T04:08:18.925Z,8.10
2019-03-09T04:09:18.893Z,8.05
2019-03-09T04:10:18.878Z,7.98
2019-03-09T04:11:18.867Z,7.98
2019-03-09T04:12:18.898Z,8.05
2019-03-09T04:13:18.840Z,8.16
2019-03-09T04:14:18.828Z,8.09
2019-03-09T04:15:18.825Z,8.13
2019-03-09T04:16:18.830Z,8.06
2019-03-09T04:17:18.835Z,8.05
2019-03-09T04:18:18.812Z,8.06
2019-03-09T04:19:18.782Z,8.08
2019-03-09T04:20:18.771Z,8.09
2019-03-09T04:21:18.760Z,8.09
2019-03-09T04:22:18.764Z,8.16
2019-03-09T04:23:18.765Z,8.08
2019-03-09T04:24:18.725Z,8.13
2019-03-09T04:25:18.720Z,8.08
2019-03-09T04:26:18.742Z,8.08
2019-03-09T04:27:18.701Z,8.15
2019-03-09T04:28:18.684Z,8.12
2019-03-09T04:29:18.701Z,8.08
2019-03-09T04:30:18.656Z,8.03
2019-03-09T04:31:18.648Z,8.03
2019-03-09T04:32:18.644Z,7.98
2019-03-09T04:33:18.631Z,8.06
2019-03-09T04:34:18.653Z,8.00
2019-03-09T04:35:18.618Z,8.05
2019-03-09T04:36:18.596Z,8.08
2019-03-09T04:37:18.593Z,8.10
2019-03-09T04:38:18.574Z,8.08
2019-03-09T04:39:18.566Z,8.00
2019-03-09T04:40:18.568Z,8.01
2019-03-09T04:41:18.546Z,8.00
2019-03-09T04:42:18.540Z,8.03
2019-03-09T04:43:18.537Z,8.08
2019-03-09T04:44:18.505Z,8.08
2019-03-09T04:45:18.521Z,7.97
2019-03-09T04:46:18.485Z,8.00
2019-03-09T04:47:18.487Z,8.00
2019-03-09T04:48:18.464Z,8.12
2019-03-09T04:49:18.462Z,8.10
2019-03-09T04:50:18.443Z,8.03
2019-03-09T04:51:18.444Z,8.06
2019-03-09T04:52:18.432Z,7.98
2019-03-09T04:53:18.420Z,8.08
2019-03-09T04:54:18.399Z,8.10
2019-03-09T04:55:18.393Z,8.06
2019-03-09T04:56:18.407Z,7.98
2019-03-09T04:57:18.363Z,8.12
2019-03-09T04:58:18.391Z,8.00
2019-03-09T04:59:18.343Z,8.08
2019-03-09T05:00:18.331Z,8.01
2019-03-09T05:01:18.352Z,8.08
2019-03-09T05:02:18.343Z,8.09
2019-03-09T05:03:18.303Z,8.06
2019-03-09T05:04:18.291Z,8.05
2019-03-09T05:05:18.281Z,8.12
2019-03-09T05:06:18.265Z,8.12
2019-03-09T05:07:18.273Z,8.08
2019-03-09T05:08:18.246Z,8.12
2019-03-09T05:09:18.241Z,8.15
2019-03-09T05:10:18.237Z,8.06
2019-03-09T05:11:18.215Z,8.08
2019-03-09T05:12:18.235Z,8.08
2019-03-09T05:13:18.188Z,8.06
2019-03-09T05:14:18.177Z,8.05
2019-03-09T05:15:18.172Z,8.05
2019-03-09T05:16:18.174Z,8.08
2019-03-09T05:17:18.176Z,8.05
2019-03-09T05:18:18.140Z,8.01
2019-03-09T05:19:18.133Z,8.09
2019-03-09T05:20:18.116Z,7.97
2019-03-09T05:21:18.112Z,8.09
2019-03-09T05:22:18.095Z,8.09
2019-03-09T05:23:18.100Z,7.95
2019-03-09T05:24:18.077Z,7.97
2019-03-09T05:25:18.081Z,8.05
2019-03-09T05:26:18.060Z,8.05
2019-03-09T05:27:18.050Z,8.10
2019-03-09T05:28:18.063Z,8.03
2019-03-09T05:29:18.016Z,8.03
2019-03-09T05:30:18.024Z,8.00
2019-03-09T05:31:17.993Z,8.03
2019-03-09T05:32:17.997Z,8.01
2019-03-09T05:33:17.992Z,8.01
2019-03-09T05:34:18.031Z,8.01
2019-03-09T05:35:17.956Z,7.94
2019-03-09T05:36:17.944Z,7.91
2019-03-09T05:37:17.926Z,7.88
2019-03-09T05:38:17.921Z,7.94
2019-03-09T05:39:17.941Z,7.94
2019-03-09T05:40:17.925Z,7.97
2019-03-09T05:41:17.893Z,7.88
2019-03-09T05:42:17.896Z,7.85
2019-03-09T05:43:17.864Z,7.76
2019-03-09T05:44:17.882Z,7.76
2019-03-09T05:45:17.892Z,7.70
2019-03-09T05:46:17.829Z,7.70
2019-03-09T05:47:17.824Z,7.60
2019-03-09T05:48:17.812Z,7.66
2019-03-09T05:49:17.819Z,7.63
2019-03-09T05:50:17.850Z,7.60
2019-03-09T05:51:17.782Z,7.60
2019-03-09T05:52:17.779Z,7.58
2019-03-09T05:53:17.760Z,7.58
2019-03-09T05:54:17.760Z,7.57
2019-03-09T05:55:17.810Z,7.53
2019-03-09T05:56:17.763Z,7.60
2019-03-09T05:57:17.714Z,7.58
2019-03-09T05:58:17.701Z,7.60
2019-03-09T05:59:18.701Z,7.54
2019-03-09T06:00:17.679Z,7.56
2019-03-09T06:01:17.701Z,7.67
2019-03-09T06:02:17.656Z,7.70
2019-03-09T06:03:17.645Z,7.73
2019-03-09T06:04:17.634Z,7.70
2019-03-09T06:05:17.630Z,7.75
2019-03-09T06:06:17.622Z,7.61
2019-03-09T06:07:17.625Z,7.69
2019-03-09T06:08:17.603Z,7.63
2019-03-09T06:09:17.583Z,7.57
2019-03-09T06:10:17.571Z,7.48
2019-03-09T06:11:17.581Z,7.51
2019-03-09T06:12:17.579Z,7.60
2019-03-09T06:13:17.542Z,7.51
2019-03-09T06:14:17.527Z,7.51
2019-03-09T06:15:17.524Z,7.48
2019-03-09T06:16:17.506Z,7.48
2019-03-09T06:17:17.494Z,7.54
2019-03-09T06:18:17.517Z,7.63
2019-03-09T06:19:17.472Z,7.48
2019-03-09T06:20:17.463Z,7.50
2019-03-09T06:21:17.454Z,7.50
2019-03-09T06:22:17.442Z,7.45
2019-03-09T06:23:17.460Z,7.48
2019-03-09T06:24:17.432Z,7.50
2019-03-09T06:25:17.419Z,7.57
2019-03-09T06:26:17.401Z,7.54
2019-03-09T06:27:17.385Z,7.57
2019-03-09T06:28:17.384Z,7.60
2019-03-09T06:29:17.415Z,7.57
2019-03-09T06:30:17.365Z,7.58
2019-03-09T06:31:17.344Z,7.57
2019-03-09T06:32:17.334Z,7.57
2019-03-09T06:33:17.327Z,7.69
2019-03-09T06:34:17.332Z,7.63
2019-03-09T06:35:17.305Z,7.58
2019-03-09T06:36:17.294Z,7.67
2019-03-09T06:37:17.281Z,7.70
2019-03-09T06:38:17.264Z,7.58
2019-03-09T06:39:17.289Z,7.70
2019-03-09T06:40:17.245Z,7.66
2019-03-09T06:41:17.243Z,7.76
2019-03-09T06:42:17.224Z,7.77
2019-03-09T06:43:17.215Z,7.72
2019-03-09T06:44:17.206Z,7.70
2019-03-09T06:45:17.221Z,7.70
2019-03-09T06:46:17.216Z,7.57
2019-03-09T06:47:17.213Z,7.63
2019-03-09T06:48:17.161Z,7.70
2019-03-09T06:49:17.190Z,7.61
2019-03-09T06:50:17.152Z,7.60
2019-03-09T06:51:17.127Z,7.60
2019-03-09T06:52:17.143Z,7.57
2019-03-09T06:53:17.110Z,7.53
2019-03-09T06:54:17.093Z,7.60
2019-03-09T06:55:17.093Z,7.56
2019-03-09T06:56:17.092Z,7.69
2019-03-09T06:57:17.104Z,7.77
2019-03-09T06:58:17.055Z,7.67
2019-03-09T06:59:17.054Z,7.63
2019-03-09T07:00:17.033Z,7.75
2019-03-09T07:01:17.019Z,7.61
2019-03-09T07:02:17.022Z,7.63
2019-03-09T07:03:17.014Z,7.63
2019-03-09T07:04:16.992Z,7.58
2019-03-09T07:05:16.976Z,7.73
2019-03-09T07:06:16.980Z,7.63
2019-03-09T07:07:16.950Z,7.66
2019-03-09T07:08:16.976Z,7.70
2019-03-09T07:09:16.931Z,7.72
2019-03-09T07:10:16.921Z,7.77
2019-03-09T07:11:16.942Z,7.73
2019-03-09T07:12:16.897Z,7.70
2019-03-09T07:13:16.896Z,7.66
2019-03-09T07:14:16.879Z,7.69
2019-03-09T07:15:16.870Z,7.77
2019-03-09T07:16:16.864Z,7.76
2019-03-09T07:17:16.873Z,7.73
2019-03-09T07:18:16.833Z,7.83
2019-03-09T07:19:16.823Z,7.80
2019-03-09T07:20:16.811Z,7.82
2019-03-09T07:21:16.803Z,7.82
2019-03-09T07:22:16.852Z,7.88
2019-03-09T07:23:16.785Z,7.91
2019-03-09T07:24:16.768Z,7.97
2019-03-09T07:25:16.774Z,7.94
2019-03-09T07:26:16.766Z,8.08
2019-03-09T07:27:16.765Z,8.06
2019-03-09T07:28:17.642Z,8.03
2019-03-09T07:29:16.717Z,7.95
2019-03-09T07:30:16.711Z,8.06
2019-03-09T07:31:16.697Z,8.06
2019-03-09T07:32:16.715Z,8.12
2019-03-09T07:33:16.689Z,8.16
2019-03-09T07:34:16.658Z,8.19
2019-03-09T07:35:16.649Z,8.19
2019-03-09T07:36:16.645Z,8.20
2019-03-09T07:37:16.659Z,8.30
2019-03-09T07:38:16.641Z,8.31
2019-03-09T07:39:16.614Z,8.31
2019-03-09T07:40:16.605Z,8.33
2019-03-09T07:41:16.584Z,8.42
2019-03-09T07:42:16.580Z,8.37
2019-03-09T07:43:16.615Z,8.41
2019-03-09T07:44:16.563Z,8.49
2019-03-09T07:45:16.544Z,8.51
2019-03-09T07:46:16.537Z,8.53
2019-03-09T07:47:16.531Z,8.61
2019-03-09T07:48:16.507Z,8.67
2019-03-09T07:49:16.536Z,8.73
2019-03-09T07:50:16.506Z,8.88
2019-03-09T07:51:16.518Z,8.89
2019-03-09T07:52:16.477Z,8.97
2019-03-09T07:53:16.454Z,9.03
2019-03-09T07:54:16.485Z,9.08
2019-03-09T07:55:16.437Z,9.06
2019-03-09T07:56:16.439Z,9.23
2019-03-09T07:57:16.413Z,9.21
2019-03-09T07:58:16.439Z,9.11
2019-03-09T07:59:16.397Z,9.25
2019-03-09T08:00:16.375Z,9.21
2019-03-09T08:01:16.383Z,9.25
2019-03-09T08:02:16.362Z,9.31
2019-03-09T08:03:16.353Z,9.18
2019-03-09T08:04:16.356Z,9.32
2019-03-09T08:05:16.331Z,9.36
2019-03-09T08:06:16.318Z,9.28
2019-03-09T08:07:16.321Z,9.23
2019-03-09T08:08:16.291Z,9.29
2019-03-09T08:09:16.316Z,9.28
2019-03-09T08:10:16.277Z,9.31
2019-03-09T08:11:16.256Z,9.31
2019-03-09T08:12:16.255Z,9.31
2019-03-09T08:13:16.234Z,9.32
2019-03-09T08:14:16.233Z,9.23
2019-03-09T08:15:16.230Z,9.28
2019-03-09T08:16:16.198Z,9.25
2019-03-09T08:17:16.198Z,9.22
2019-03-09T08:18:16.193Z,9.29
2019-03-09T08:19:16.199Z,9.37
2019-03-09T08:20:16.236Z,9.39
2019-03-09T08:21:16.150Z,9.47
2019-03-09T08:22:16.140Z,9.51
2019-03-09T08:23:16.126Z,9.58
2019-03-09T08:24:16.145Z,9.65
2019-03-09T08:25:16.123Z,9.87
2019-03-09T08:26:16.123Z,9.84
2019-03-09T08:27:16.086Z,9.82
2019-03-09T08:28:16.614Z,9.73
2019-03-09T08:29:16.056Z,9.64
2019-03-09T08:30:16.054Z,9.69
2019-03-09T08:31:16.043Z,9.69
2019-03-09T08:32:16.030Z,9.59
2019-03-09T08:33:16.012Z,9.50
2019-03-09T08:34:16.024Z,9.61
2019-03-09T08:35:15.992Z,9.59
2019-03-09T08:36:16.013Z,9.59
2019-03-09T08:37:15.983Z,9.55
2019-03-09T08:38:15.999Z,9.56
2019-03-09T08:39:15.964Z,9.55
2019-03-09T08:40:15.939Z,9.56
2019-03-09T08:41:15.930Z,9.54
2019-03-09T08:42:15.949Z,9.55
2019-03-09T08:43:15.939Z,9.61
2019-03-09T08:44:15.898Z,9.58
2019-03-09T08:45:15.894Z,9.56
2019-03-09T08:46:15.889Z,9.55
2019-03-09T08:47:15.870Z,9.72
2019-03-09T08:48:15.886Z,9.76
2019-03-09T08:49:15.853Z,9.89
2019-03-09T08:50:15.831Z,10.04
2019-03-09T08:51:15.816Z,10.01
2019-03-09T08:52:15.820Z,10.19
2019-03-09T08:53:15.875Z,10.25
2019-03-09T08:54:15.783Z,10.31
2019-03-09T08:55:17.841Z,10.40
2019-03-09T08:56:15.762Z,10.42
2019-03-09T08:57:15.759Z,10.37
2019-03-09T08:58:15.748Z,10.46
2019-03-09T08:59:15.775Z,10.46
2019-03-09T09:00:15.771Z,10.53
2019-03-09T09:01:15.744Z,10.46
2019-03-09T09:02:15.710Z,10.53
2019-03-09T09:03:15.689Z,10.72
2019-03-09T09:04:15.707Z,10.78
2019-03-09T09:05:15.662Z,10.81
2019-03-09T09:06:15.660Z,10.84
2019-03-09T09:07:15.648Z,10.81
2019-03-09T09:08:15.665Z,10.94
2019-03-09T09:09:15.651Z,11.08
2019-03-09T09:10:15.630Z,11.22
2019-03-09T09:11:15.592Z,11.14
2019-03-09T09:12:15.592Z,11.07
2019-03-09T09:13:15.617Z,10.99
2019-03-09T09:14:15.562Z,11.08
2019-03-09T09:15:15.551Z,11.14
2019-03-09T09:16:15.545Z,11.12
2019-03-09T09:17:15.532Z,11.22
2019-03-09T09:18:15.521Z,11.00
2019-03-09T09:19:15.531Z,10.96
2019-03-09T09:20:15.497Z,11.11
2019-03-09T09:21:15.519Z,11.14
2019-03-09T09:22:15.503Z,11.15
2019-03-09T09:23:15.464Z,11.29
2019-03-09T09:24:15.485Z,11.22
2019-03-09T09:25:15.450Z,11.23
2019-03-09T09:26:15.430Z,11.12
2019-03-09T09:27:15.421Z,11.08
2019-03-09T09:28:15.417Z,10.99
2019-03-09T09:29:15.421Z,11.08
2019-03-09T09:30:15.402Z,11.17
2019-03-09T09:31:15.378Z,11.18
2019-03-09T09:32:15.367Z,11.23
2019-03-09T09:33:15.367Z,11.25
2019-03-09T09:34:15.398Z,11.15
2019-03-09T09:35:15.332Z,11.25
2019-03-09T09:36:15.347Z,11.22
2019-03-09T09:37:15.311Z,11.27
2019-03-09T09:38:15.324Z,11.26
2019-03-09T09:39:15.302Z,11.22
2019-03-09T09:40:15.310Z,11.27
2019-03-09T09:41:15.278Z,11.33
2019-03-09T09:42:15.255Z,11.33
2019-03-09T09:43:15.253Z,11.44
2019-03-09T09:44:15.280Z,11.30
2019-03-09T09:45:15.233Z,11.25
2019-03-09T09:46:15.235Z,11.19
2019-03-09T09:47:15.202Z,11.23
2019-03-09T09:48:15.227Z,11.18
2019-03-09T09:49:15.179Z,11.23
2019-03-09T09:50:15.189Z,11.22
2019-03-09T09:51:15.157Z,11.27
2019-03-09T09:52:15.147Z,11.43
2019-03-09T09:53:15.139Z,11.55
2019-03-09T09:54:15.153Z,11.51
2019-03-09T09:55:15.114Z,11.50
2019-03-09T09:56:15.130Z,11.47
2019-03-09T09:57:15.089Z,11.50
2019-03-09T09:58:15.079Z,11.45
2019-03-09T09:59:15.091Z,11.44
2019-03-09T10:00:15.061Z,11.51
2019-03-09T10:01:15.046Z,11.51
2019-03-09T10:02:15.064Z,11.65
2019-03-09T10:03:15.027Z,11.66
2019-03-09T10:04:15.051Z,11.59
2019-03-09T10:05:15.029Z,11.48
2019-03-09T10:06:15.015Z,11.57
2019-03-09T10:07:14.985Z,11.55
2019-03-09T10:08:14.987Z,11.52
2019-03-09T10:09:15.001Z,11.66
2019-03-09T10:10:14.958Z,11.70
2019-03-09T10:11:14.959Z,11.66
2019-03-09T10:12:14.928Z,11.70
2019-03-09T10:13:14.922Z,11.78
2019-03-09T10:14:14.941Z,11.78
2019-03-09T10:15:14.894Z,11.86
2019-03-09T10:16:14.888Z,11.77
2019-03-09T10:17:14.873Z,11.75
2019-03-09T10:18:14.867Z,11.66
2019-03-09T10:19:14.868Z,11.65
2019-03-09T10:20:14.865Z,11.65
2019-03-09T10:21:14.837Z,11.66
2019-03-09T10:22:14.828Z,11.77
2019-03-09T10:23:14.836Z,11.80
2019-03-09T10:24:14.833Z,11.80
2019-03-09T10:25:14.814Z,11.87
2019-03-09T10:26:14.793Z,11.88
2019-03-09T10:27:14.764Z,11.86
2019-03-09T10:28:14.776Z,11.95
2019-03-09T10:29:14.768Z,11.97
2019-03-09T10:30:14.744Z,12.03
2019-03-09T10:31:14.760Z,12.02
2019-03-09T10:32:14.780Z,12.17
2019-03-09T10:33:14.703Z,12.22
2019-03-09T10:34:14.689Z,12.21
2019-03-09T10:35:14.695Z,12.17
2019-03-09T10:36:14.709Z,12.27
2019-03-09T10:37:14.656Z,12.32
2019-03-09T10:38:14.647Z,12.25
2019-03-09T10:39:14.641Z,12.29
2019-03-09T10:40:14.626Z,12.28
2019-03-09T10:41:14.613Z,12.35
2019-03-09T10:42:14.624Z,12.46
2019-03-09T10:43:14.593Z,12.50
2019-03-09T10:44:14.582Z,12.49
2019-03-09T10:45:14.611Z,12.46
2019-03-09T10:46:14.577Z,12.61
2019-03-09T10:47:14.555Z,12.58
2019-03-09T10:48:14.570Z,12.73
2019-03-09T10:49:14.525Z,12.80
2019-03-09T10:50:14.538Z,12.86
2019-03-09T10:51:14.527Z,12.76
2019-03-09T10:52:14.494Z,12.70
2019-03-09T10:53:14.523Z,12.62
2019-03-09T10:54:14.501Z,12.62
2019-03-09T10:55:14.496Z,12.62
2019-03-09T10:56:14.449Z,12.70
2019-03-09T10:57:14.450Z,12.70
2019-03-09T10:58:14.424Z,12.86
2019-03-09T10:59:14.419Z,12.93
2019-03-09T11:00:14.411Z,12.87
2019-03-09T11:01:14.411Z,12.95
2019-03-09T11:02:14.383Z,12.95
2019-03-09T11:03:14.372Z,13.03
2019-03-09T11:04:14.366Z,12.98
2019-03-09T11:05:14.388Z,12.98
2019-03-09T11:06:14.338Z,12.91
2019-03-09T11:07:14.340Z,12.87
2019-03-09T11:08:14.315Z,12.83
2019-03-09T11:09:14.306Z,12.72
2019-03-09T11:10:14.362Z,12.68
2019-03-09T11:11:14.287Z,12.62
2019-03-09T11:12:14.307Z,12.72
2019-03-09T11:13:14.268Z,12.62
2019-03-09T11:14:14.247Z,12.58
2019-03-09T11:15:14.237Z,12.67
2019-03-09T11:16:14.252Z,12.68
2019-03-09T11:17:14.222Z,12.64
2019-03-09T11:18:14.203Z,12.54
2019-03-09T11:19:14.193Z,12.50
2019-03-09T11:20:14.223Z,12.64
2019-03-09T11:21:14.203Z,12.64
2019-03-09T11:22:14.159Z,12.61
2019-03-09T11:23:14.158Z,12.76
2019-03-09T11:24:14.138Z,12.68
2019-03-09T11:25:14.132Z,12.76
2019-03-09T11:26:14.205Z,12.82
2019-03-09T11:27:14.123Z,12.83
2019-03-09T11:28:14.101Z,12.82
2019-03-09T11:29:14.090Z,12.83
2019-03-09T11:30:14.082Z,12.82
2019-03-09T11:31:14.079Z,12.79
2019-03-09T11:32:14.078Z,12.80
2019-03-09T11:33:14.052Z,12.94
2019-03-09T11:34:14.030Z,12.91
2019-03-09T11:35:14.025Z,12.90
2019-03-09T11:36:14.047Z,12.80
2019-03-09T11:37:13.997Z,12.83
2019-03-09T11:38:13.990Z,12.90
2019-03-09T11:39:14.002Z,12.90
2019-03-09T11:40:13.973Z,12.87
2019-03-09T11:41:19.097Z,12.91
2019-03-09T11:42:14.943Z,12.85
2019-03-09T11:43:13.931Z,12.95
2019-03-09T11:44:13.945Z,12.85
2019-03-09T11:45:13.909Z,12.85
2019-03-09T11:46:13.905Z,12.80
2019-03-09T11:47:13.888Z,12.60
2019-03-09T11:48:13.890Z,12.53
2019-03-09T11:49:13.912Z,12.47
2019-03-09T11:50:13.854Z,12.43
2019-03-09T11:51:13.868Z,12.46
2019-03-09T11:52:19.894Z,12.39
2019-03-09T11:53:14.819Z,12.42
2019-03-09T11:54:13.816Z,12.39
2019-03-09T11:55:13.825Z,12.35
2019-03-09T11:56:13.785Z,12.31
2019-03-09T11:57:13.784Z,12.29
2019-03-09T11:58:13.765Z,12.40
2019-03-09T11:59:13.785Z,12.32
2019-03-09T12:00:13.773Z,12.32
2019-03-09T12:01:13.729Z,12.29
2019-03-09T12:02:13.720Z,12.31
2019-03-09T12:03:13.709Z,12.37
2019-03-09T12:04:13.705Z,12.39
2019-03-09T12:05:13.721Z,12.32
2019-03-09T12:06:13.745Z,12.43
2019-03-09T12:07:13.668Z,12.58
2019-03-09T12:08:13.656Z,12.50
2019-03-09T12:09:13.648Z,12.53
2019-03-09T12:10:13.641Z,12.64
2019-03-09T12:11:13.624Z,12.68
2019-03-09T12:12:13.666Z,12.79
2019-03-09T12:13:13.604Z,12.78
2019-03-09T12:14:13.588Z,12.86
2019-03-09T12:15:13.586Z,12.91
2019-03-09T12:16:13.571Z,12.93
2019-03-09T12:17:13.599Z,12.93
2019-03-09T12:18:13.552Z,12.94
2019-03-09T12:19:13.544Z,12.90
2019-03-09T12:20:13.637Z,12.91
2019-03-09T12:21:13.510Z,12.90
2019-03-09T12:22:13.529Z,12.91
2019-03-09T12:23:13.499Z,12.86
2019-03-09T12:24:18.782Z,12.87
2019-03-09T12:25:14.493Z,12.76
2019-03-09T12:26:13.492Z,12.70
2019-03-09T12:27:13.465Z,12.73
2019-03-09T12:28:13.453Z,12.72
2019-03-09T12:29:13.426Z,12.72
2019-03-09T12:30:13.424Z,12.60
2019-03-09T12:31:13.419Z,12.53
2019-03-09T12:32:13.429Z,12.62
2019-03-09T12:33:13.381Z,12.53
2019-03-09T12:34:13.371Z,12.49
2019-03-09T12:35:13.361Z,12.60
2019-03-09T12:36:13.354Z,12.46
2019-03-09T12:37:13.337Z,12.45
2019-03-09T12:38:13.346Z,12.47
2019-03-09T12:39:13.314Z,12.43
2019-03-09T12:40:13.302Z,12.36
2019-03-09T12:41:13.373Z,12.60
2019-03-09T12:42:13.283Z,12.54
2019-03-09T12:43:13.312Z,12.42
2019-03-09T12:44:13.260Z,12.54
2019-03-09T12:45:13.253Z,12.42
2019-03-09T12:46:13.247Z,12.50
2019-03-09T12:47:13.252Z,12.49
2019-03-09T12:48:13.218Z,12.45
2019-03-09T12:49:13.202Z,12.39
2019-03-09T12:50:13.191Z,12.49
2019-03-09T12:51:13.183Z,12.39
2019-03-09T12:52:13.247Z,12.49
2019-03-09T12:53:14.184Z,12.45
2019-03-09T12:54:13.165Z,12.39
2019-03-09T12:55:13.143Z,12.35
2019-03-09T12:56:13.126Z,12.37
2019-03-09T12:57:13.146Z,12.36
2019-03-09T12:58:13.107Z,12.29
2019-03-09T12:59:13.093Z,12.18
2019-03-09T13:00:13.097Z,11.99
2019-03-09T13:01:13.077Z,11.65
2019-03-09T13:02:13.099Z,11.62
2019-03-09T13:03:13.076Z,11.54
2019-03-09T13:04:13.045Z,11.55
2019-03-09T13:05:13.032Z,11.57
2019-03-09T13:06:13.027Z,11.54
2019-03-09T13:07:13.007Z,11.80
2019-03-09T13:08:13.026Z,11.86
2019-03-09T13:09:12.990Z,11.90
2019-03-09T13:10:12.980Z,11.94